Terminal Aerodrome Forecast
Issued by NWS Wilmington, OH

Current Version | Previous Version | Text Only | Print | Product List | Glossary Off
Versions: 1 2 3 4 5 6 7 8 9 10 11 12 13

000
FTUS41 KILN 012300
TAFDAY
TAF
KDAY 012339Z 0200/0224 01008KT P6SM FEW080
     FM020300 VRB02KT P6SM SKC
     FM021400 25006KT P6SM SCT200
     FM021800 25006KT P6SM SCT060=

USA.gov is the U.S. government's official web portal to all federal, state and local government web resources and services.